sensor_id;sensor_type;location;lat;lon;timestamp;pressure;altitude;pressure_sealevel;temperature;humidity
33155;BME280;19511;42.682;23.332;2023-04-09T00:01:04;95365.47;;;6.35;100.00
33155;BME280;19511;42.682;23.332;2023-04-09T00:03:29;95367.88;;;6.40;100.00
33155;BME280;19511;42.682;23.332;2023-04-09T00:05:55;95364.00;;;6.45;100.00
33155;BME280;19511;42.682;23.332;2023-04-09T00:08:20;95371.38;;;6.37;100.00
33155;BME280;19511;42.682;23.332;2023-04-09T00:10:47;95373.47;;;6.51;100.00
33155;BME280;19511;42.682;23.332;2023-04-09T00:13:13;95372.34;;;6.56;100.00
33155;BME280;19511;42.682;23.332;2023-04-09T00:15:38;95375.06;;;6.52;100.00
33155;BME280;19511;42.682;23.332;2023-04-09T00:18:03;95372.69;;;6.50;100.00
33155;BME280;19511;42.682;23.332;2023-04-09T00:20:29;95377.06;;;6.59;100.00
33155;BME280;19511;42.682;23.332;2023-04-09T00:22:54;95377.38;;;6.46;100.00
33155;BME280;19511;42.682;23.332;2023-04-09T00:25:20;95373.84;;;6.49;100.00
33155;BME280;19511;42.682;23.332;2023-04-09T00:27:45;95376.59;;;6.49;100.00
33155;BME280;19511;42.682;23.332;2023-04-09T00:30:11;95379.69;;;6.44;100.00
33155;BME280;19511;42.682;23.332;2023-04-09T00:32:36;95378.88;;;6.40;100.00
33155;BME280;19511;42.682;23.332;2023-04-09T00:35:01;95375.00;;;6.48;100.00
33155;BME280;19511;42.682;23.332;2023-04-09T00:37:26;95374.13;;;6.37;100.00
33155;BME280;19511;42.682;23.332;2023-04-09T00:39:52;95373.44;;;6.47;100.00
33155;BME280;19511;42.682;23.332;2023-04-09T00:42:17;95381.34;;;6.52;100.00
33155;BME280;19511;42.682;23.332;2023-04-09T00:44:42;95379.44;;;6.57;100.00
33155;BME280;19511;42.682;23.332;2023-04-09T00:47:07;95375.84;;;6.52;100.00
33155;BME280;19511;42.682;23.332;2023-04-09T00:49:33;95378.09;;;6.43;100.00
33155;BME280;19511;42.682;23.332;2023-04-09T00:51:59;95370.28;;;6.45;100.00
33155;BME280;19511;42.682;23.332;2023-04-09T00:54:25;95371.09;;;6.49;100.00
33155;BME280;19511;42.682;23.332;2023-04-09T00:56:51;95379.44;;;6.57;100.00
33155;BME280;19511;42.682;23.332;2023-04-09T00:59:17;95376.53;;;6.42;100.00
33155;BME280;19511;42.682;23.332;2023-04-09T01:01:43;95378.84;;;6.36;100.00
33155;BME280;19511;42.682;23.332;2023-04-09T01:04:12;95381.59;;;6.36;100.00
33155;BME280;19511;42.682;23.332;2023-04-09T01:06:40;95379.56;;;6.33;100.00
33155;BME280;19511;42.682;23.332;2023-04-09T01:11:37;95385.78;;;6.27;100.00
33155;BME280;19511;42.682;23.332;2023-04-09T01:16:46;95381.84;;;6.24;100.00
33155;BME280;19511;42.682;23.332;2023-04-09T01:21:44;95384.28;;;6.33;100.00
33155;BME280;19511;42.682;23.332;2023-04-09T01:26:51;95393.31;;;6.30;100.00
33155;BME280;19511;42.682;23.332;2023-04-09T01:29:18;95387.56;;;6.46;100.00
33155;BME280;19511;42.682;23.332;2023-04-09T01:31:44;95394.34;;;6.56;100.00
33155;BME280;19511;42.682;23.332;2023-04-09T01:34:09;95392.31;;;6.49;100.00
33155;BME280;19511;42.682;23.332;2023-04-09T01:36:35;95389.63;;;6.56;100.00
33155;BME280;19511;42.682;23.332;2023-04-09T01:39:02;95392.19;;;6.38;100.00
33155;BME280;19511;42.682;23.332;2023-04-09T01:41:30;95386.78;;;6.45;100.00
33155;BME280;19511;42.682;23.332;2023-04-09T01:43:55;95387.59;;;6.49;100.00
33155;BME280;19511;42.682;23.332;2023-04-09T01:46:22;95382.19;;;6.57;100.00
33155;BME280;19511;42.682;23.332;2023-04-09T01:48:48;95389.25;;;6.61;100.00
33155;BME280;19511;42.682;23.332;2023-04-09T01:51:14;95390.69;;;6.44;100.00
33155;BME280;19511;42.682;23.332;2023-04-09T01:53:39;95391.72;;;6.29;100.00
33155;BME280;19511;42.682;23.332;2023-04-09T01:56:05;95390.50;;;6.26;100.00
33155;BME280;19511;42.682;23.332;2023-04-09T01:58:31;95386.94;;;6.26;100.00
33155;BME280;19511;42.682;23.332;2023-04-09T02:01:17;95388.97;;;6.29;100.00
33155;BME280;19511;42.682;23.332;2023-04-09T02:03:50;95386.63;;;6.31;100.00
33155;BME280;19511;42.682;23.332;2023-04-09T02:06:33;95386.94;;;6.26;100.00
33155;BME280;19511;42.682;23.332;2023-04-09T02:09:01;95378.41;;;6.34;100.00
33155;BME280;19511;42.682;23.332;2023-04-09T02:11:29;95392.09;;;6.31;100.00
33155;BME280;19511;42.682;23.332;2023-04-09T02:13:56;95388.19;;;6.32;100.00
33155;BME280;19511;42.682;23.332;2023-04-09T02:16:22;95390.13;;;6.28;100.00
33155;BME280;19511;42.682;23.332;2023-04-09T02:18:51;95395.78;;;6.08;100.00
33155;BME280;19511;42.682;23.332;2023-04-09T02:21:17;95389.56;;;6.11;100.00
33155;BME280;19511;42.682;23.332;2023-04-09T02:23:42;95383.47;;;6.29;100.00
33155;BME280;19511;42.682;23.332;2023-04-09T02:26:08;95381.16;;;6.34;100.00
33155;BME280;19511;42.682;23.332;2023-04-09T02:28:33;95383.44;;;6.25;100.00
33155;BME280;19511;42.682;23.332;2023-04-09T02:30:58;95388.00;;;6.14;100.00
33155;BME280;19511;42.682;23.332;2023-04-09T02:33:23;95384.41;;;6.06;100.00
33155;BME280;19511;42.682;23.332;2023-04-09T02:35:49;95390.28;;;6.08;100.00
33155;BME280;19511;42.682;23.332;2023-04-09T02:38:14;95387.19;;;6.10;100.00
33155;BME280;19511;42.682;23.332;2023-04-09T02:40:40;95380.03;;;6.01;100.00
33155;BME280;19511;42.682;23.332;2023-04-09T02:43:05;95375.00;;;6.07;100.00
33155;BME280;19511;42.682;23.332;2023-04-09T02:45:30;95377.19;;;5.94;100.00
33155;BME280;19511;42.682;23.332;2023-04-09T02:47:56;95379.84;;;5.87;100.00
33155;BME280;19511;42.682;23.332;2023-04-09T02:50:21;95384.53;;;5.86;100.00
33155;BME280;19511;42.682;23.332;2023-04-09T02:52:46;95384.56;;;5.90;100.00
33155;BME280;19511;42.682;23.332;2023-04-09T02:55:12;95377.53;;;5.93;100.00
33155;BME280;19511;42.682;23.332;2023-04-09T02:57:38;95381.44;;;5.92;100.00
33155;BME280;19511;42.682;23.332;2023-04-09T03:00:03;95381.78;;;5.86;100.00
33155;BME280;19511;42.682;23.332;2023-04-09T03:02:29;95372.53;;;5.68;100.00
33155;BME280;19511;42.682;23.332;2023-04-09T03:04:54;95377.88;;;5.57;100.00
33155;BME280;19511;42.682;23.332;2023-04-09T03:07:20;95367.72;;;5.58;100.00
33155;BME280;19511;42.682;23.332;2023-04-09T03:09:45;95382.75;;;5.71;100.00
33155;BME280;19511;42.682;23.332;2023-04-09T03:12:10;95377.72;;;5.73;100.00
33155;BME280;19511;42.682;23.332;2023-04-09T03:14:39;95370.34;;;5.81;100.00
33155;BME280;19511;42.682;23.332;2023-04-09T03:17:04;95379.97;;;5.67;100.00
33155;BME280;19511;42.682;23.332;2023-04-09T03:19:29;95374.13;;;5.69;100.00
33155;BME280;19511;42.682;23.332;2023-04-09T03:21:55;95378.81;;;5.68;100.00
33155;BME280;19511;42.682;23.332;2023-04-09T03:24:20;95381.06;;;5.59;100.00
33155;BME280;19511;42.682;23.332;2023-04-09T03:26:45;95385.38;;;5.60;100.00
33155;BME280;19511;42.682;23.332;2023-04-09T03:29:11;95379.38;;;5.51;100.00
33155;BME280;19511;42.682;23.332;2023-04-09T03:31:36;95380.25;;;5.59;100.00
33155;BME280;19511;42.682;23.332;2023-04-09T03:34:01;95377.88;;;5.57;100.00
33155;BME280;19511;42.682;23.332;2023-04-09T03:36:27;95369.03;;;5.40;100.00
33155;BME280;19511;42.682;23.332;2023-04-09T03:38:52;95381.47;;;5.31;100.00
33155;BME280;19511;42.682;23.332;2023-04-09T03:41:20;95386.09;;;5.27;100.00
33155;BME280;19511;42.682;23.332;2023-04-09T03:43:45;95380.28;;;5.32;100.00
33155;BME280;19511;42.682;23.332;2023-04-09T03:46:14;95376.16;;;5.45;100.00
33155;BME280;19511;42.682;23.332;2023-04-09T03:48:40;95378.59;;;5.50;100.00
33155;BME280;19511;42.682;23.332;2023-04-09T03:51:05;95376.06;;;5.38;100.00
33155;BME280;19511;42.682;23.332;2023-04-09T03:53:31;95382.72;;;5.37;100.00
33155;BME280;19511;42.682;23.332;2023-04-09T03:55:56;95386.25;;;5.37;100.00
33155;BME280;19511;42.682;23.332;2023-04-09T03:58:21;95394.53;;;5.41;100.00
33155;BME280;19511;42.682;23.332;2023-04-09T04:00:47;95389.94;;;5.49;100.00
33155;BME280;19511;42.682;23.332;2023-04-09T04:03:12;95388.25;;;5.40;100.00
33155;BME280;19511;42.682;23.332;2023-04-09T04:05:40;95394.28;;;5.50;100.00
33155;BME280;19511;42.682;23.332;2023-04-09T04:08:05;95397.75;;;5.47;100.00
33155;BME280;19511;42.682;23.332;2023-04-09T04:10:30;95391.56;;;5.53;100.00
33155;BME280;19511;42.682;23.332;2023-04-09T04:12:57;95395.94;;;5.58;100.00
33155;BME280;19511;42.682;23.332;2023-04-09T04:15:22;95397.13;;;5.61;100.00
33155;BME280;19511;42.682;23.332;2023-04-09T04:17:48;95396.63;;;5.51;100.00
33155;BME280;19511;42.682;23.332;2023-04-09T04:20:16;95391.09;;;5.48;100.00
33155;BME280;19511;42.682;23.332;2023-04-09T04:22:42;95394.53;;;5.41;100.00
33155;BME280;19511;42.682;23.332;2023-04-09T04:25:07;95399.28;;;5.44;100.00
33155;BME280;19511;42.682;23.332;2023-04-09T04:27:33;95399.97;;;5.37;100.00
33155;BME280;19511;42.682;23.332;2023-04-09T04:29:58;95397.75;;;5.47;100.00
33155;BME280;19511;42.682;23.332;2023-04-09T04:32:24;95398.56;;;5.47;100.00
33155;BME280;19511;42.682;23.332;2023-04-09T04:34:49;95403.59;;;5.45;100.00
33155;BME280;19511;42.682;23.332;2023-04-09T04:37:15;95404.03;;;5.47;100.00
33155;BME280;19511;42.682;23.332;2023-04-09T04:39:40;95401.44;;;5.58;100.00
33155;BME280;19511;42.682;23.332;2023-04-09T04:42:05;95411.19;;;5.55;100.00
33155;BME280;19511;42.682;23.332;2023-04-09T04:44:31;95402.63;;;5.61;100.00
33155;BME280;19511;42.682;23.332;2023-04-09T04:46:56;95402.78;;;5.71;100.00
33155;BME280;19511;42.682;23.332;2023-04-09T04:49:21;95399.34;;;5.78;100.00
33155;BME280;19511;42.682;23.332;2023-04-09T04:51:46;95400.50;;;5.77;100.00
33155;BME280;19511;42.682;23.332;2023-04-09T04:54:15;95400.13;;;5.79;100.00
33155;BME280;19511;42.682;23.332;2023-04-09T04:56:40;95405.25;;;5.80;100.00
33155;BME280;19511;42.682;23.332;2023-04-09T04:59:06;95402.56;;;5.87;100.00
33155;BME280;19511;42.682;23.332;2023-04-09T05:01:31;95402.56;;;5.87;100.00
33155;BME280;19511;42.682;23.332;2023-04-09T05:03:56;95405.84;;;5.97;100.00
33155;BME280;19511;42.682;23.332;2023-04-09T05:06:22;95411.47;;;6.08;100.00
33155;BME280;19511;42.682;23.332;2023-04-09T05:08:47;95410.03;;;6.17;100.00
33155;BME280;19511;42.682;23.332;2023-04-09T05:11:12;95412.44;;;6.23;100.00
33155;BME280;19511;42.682;23.332;2023-04-09T05:13:39;95412.44;;;6.23;100.00
33155;BME280;19511;42.682;23.332;2023-04-09T05:16:04;95413.34;;;6.34;100.00
33155;BME280;19511;42.682;23.332;2023-04-09T05:18:30;95415.41;;;6.44;100.00
33155;BME280;19511;42.682;23.332;2023-04-09T05:20:55;95418.28;;;6.59;100.00
33155;BME280;19511;42.682;23.332;2023-04-09T05:23:21;95417.19;;;6.63;100.00
33155;BME280;19511;42.682;23.332;2023-04-09T05:25:49;95419.66;;;6.76;100.00
33155;BME280;19511;42.682;23.332;2023-04-09T05:28:14;95412.25;;;6.83;100.00
33155;BME280;19511;42.682;23.332;2023-04-09T05:30:41;95415.06;;;6.91;100.00
33155;BME280;19511;42.682;23.332;2023-04-09T05:33:09;95405.31;;;7.00;100.00
33155;BME280;19511;42.682;23.332;2023-04-09T05:35:38;95409.22;;;6.96;100.00
33155;BME280;19511;42.682;23.332;2023-04-09T05:38:04;95407.28;;;7.00;100.00
33155;BME280;19511;42.682;23.332;2023-04-09T05:40:32;95398.97;;;6.93;100.00
33155;BME280;19511;42.682;23.332;2023-04-09T05:42:59;95399.06;;;7.03;100.00
33155;BME280;19511;42.682;23.332;2023-04-09T05:45:28;95408.13;;;7.08;100.00
33155;BME280;19511;42.682;23.332;2023-04-09T05:47:56;95409.34;;;7.10;100.00
33155;BME280;19511;42.682;23.332;2023-04-09T05:50:21;95410.53;;;7.13;100.00
33155;BME280;19511;42.682;23.332;2023-04-09T05:52:46;95410.09;;;7.11;100.00
33155;BME280;19511;42.682;23.332;2023-04-09T05:55:12;95406.31;;;7.26;100.00
33155;BME280;19511;42.682;23.332;2023-04-09T05:57:37;95413.84;;;7.37;100.00
33155;BME280;19511;42.682;23.332;2023-04-09T06:00:06;95410.06;;;7.59;100.00
33155;BME280;19511;42.682;23.332;2023-04-09T06:02:32;95410.03;;;7.56;100.00
33155;BME280;19511;42.682;23.332;2023-04-09T06:04:57;95405.75;;;7.62;100.00
33155;BME280;19511;42.682;23.332;2023-04-09T06:07:22;95407.72;;;7.65;100.00
33155;BME280;19511;42.682;23.332;2023-04-09T06:09:48;95404.97;;;7.65;100.00
33155;BME280;19511;42.682;23.332;2023-04-09T06:12:13;95407.81;;;7.83;100.00
33155;BME280;19511;42.682;23.332;2023-04-09T06:14:39;95400.84;;;8.07;100.00
33155;BME280;19511;42.682;23.332;2023-04-09T06:17:05;95413.03;;;8.06;100.00
33155;BME280;19511;42.682;23.332;2023-04-09T06:19:34;95408.72;;;8.09;100.00
33155;BME280;19511;42.682;23.332;2023-04-09T06:22:03;95405.97;;;8.09;100.00
33155;BME280;19511;42.682;23.332;2023-04-09T06:24:29;95408.72;;;8.12;100.00
33155;BME280;19511;42.682;23.332;2023-04-09T06:26:58;95404.44;;;8.26;100.00
33155;BME280;19511;42.682;23.332;2023-04-09T06:29:26;95404.84;;;8.31;100.00
33155;BME280;19511;42.682;23.332;2023-04-09T06:31:52;95406.88;;;8.42;100.00
33155;BME280;19511;42.682;23.332;2023-04-09T06:34:23;95408.81;;;8.41;100.00
33155;BME280;19511;42.682;23.332;2023-04-09T06:36:54;95400.97;;;8.43;100.00
33155;BME280;19511;42.682;23.332;2023-04-09T06:39:27;95404.56;;;8.55;100.00
33155;BME280;19511;42.682;23.332;2023-04-09T06:41:54;95407.72;;;8.64;100.00
33155;BME280;19511;42.682;23.332;2023-04-09T06:44:23;95407.72;;;8.68;100.00
33155;BME280;19511;42.682;23.332;2023-04-09T06:46:55;95410.13;;;8.76;100.00
33155;BME280;19511;42.682;23.332;2023-04-09T06:49:27;95412.84;;;8.65;100.00
33155;BME280;19511;42.682;23.332;2023-04-09T06:52:03;95412.47;;;8.74;100.00
33155;BME280;19511;42.682;23.332;2023-04-09T06:54:29;95408.13;;;8.73;100.00
33155;BME280;19511;42.682;23.332;2023-04-09T06:56:57;95416.03;;;8.71;100.00
33155;BME280;19511;42.682;23.332;2023-04-09T06:59:30;95413.22;;;8.57;100.00
33155;BME280;19511;42.682;23.332;2023-04-09T07:01:58;95420.72;;;8.56;100.00
33155;BME280;19511;42.682;23.332;2023-04-09T07:04:27;95413.22;;;8.57;100.00
33155;BME280;19511;42.682;23.332;2023-04-09T07:06:53;95413.19;;;8.53;100.00
33155;BME280;19511;42.682;23.332;2023-04-09T07:09:24;95417.97;;;8.63;100.00
33155;BME280;19511;42.682;23.332;2023-04-09T07:11:49;95407.34;;;8.69;100.00
33155;BME280;19511;42.682;23.332;2023-04-09T07:14:14;95421.94;;;8.84;100.00
33155;BME280;19511;42.682;23.332;2023-04-09T07:16:40;95417.97;;;8.89;100.00
33155;BME280;19511;42.682;23.332;2023-04-09T07:19:06;95409.34;;;8.90;100.00
33155;BME280;19511;42.682;23.332;2023-04-09T07:21:32;95405.78;;;9.01;100.00
33155;BME280;19511;42.682;23.332;2023-04-09T07:23:57;95410.91;;;8.95;100.00
33155;BME280;19511;42.682;23.332;2023-04-09T07:26:22;95421.16;;;8.91;100.00
33155;BME280;19511;42.682;23.332;2023-04-09T07:28:48;95420.78;;;8.85;100.00
33155;BME280;19511;42.682;23.332;2023-04-09T07:31:13;95421.56;;;8.93;100.00
33155;BME280;19511;42.682;23.332;2023-04-09T07:33:38;95419.59;;;9.19;100.00
33155;BME280;19511;42.682;23.332;2023-04-09T07:36:03;95423.13;;;9.23;100.00
33155;BME280;19511;42.682;23.332;2023-04-09T07:38:29;95416.44;;;9.24;100.00
33155;BME280;19511;42.682;23.332;2023-04-09T07:40:54;95419.97;;;9.35;100.00
33155;BME280;19511;42.682;23.332;2023-04-09T07:43:19;95420.38;;;9.41;100.00
33155;BME280;19511;42.682;23.332;2023-04-09T07:45:47;95418.81;;;9.14;100.00
33155;BME280;19511;42.682;23.332;2023-04-09T07:48:16;95419.59;;;9.22;100.00
33155;BME280;19511;42.682;23.332;2023-04-09T07:50:42;95422.75;;;9.35;100.00
33155;BME280;19511;42.682;23.332;2023-04-09T07:53:09;95434.56;;;9.14;100.00
33155;BME280;19511;42.682;23.332;2023-04-09T07:55:34;95439.69;;;9.30;100.00
33155;BME280;19511;42.682;23.332;2023-04-09T07:57:59;95432.19;;;9.30;100.00
33155;BME280;19511;42.682;23.332;2023-04-09T08:00:29;95431.41;;;9.30;100.00
33155;BME280;19511;42.682;23.332;2023-04-09T08:02:55;95440.09;;;9.32;100.00
33155;BME280;19511;42.682;23.332;2023-04-09T08:05:21;95435.38;;;9.43;100.00
33155;BME280;19511;42.682;23.332;2023-04-09T08:07:46;95438.50;;;9.42;100.00
33155;BME280;19511;42.682;23.332;2023-04-09T08:10:12;95446.00;;;9.48;100.00
33155;BME280;19511;42.682;23.332;2023-04-09T08:12:39;95451.91;;;9.58;100.00
33155;BME280;19511;42.682;23.332;2023-04-09T08:15:04;95444.41;;;9.62;100.00
33155;BME280;19511;42.682;23.332;2023-04-09T08:17:30;95444.81;;;9.35;100.00
33155;BME280;19511;42.682;23.332;2023-04-09T08:19:55;95438.13;;;9.36;100.00
33155;BME280;19511;42.682;23.332;2023-04-09T08:22:21;95444.81;;;9.46;100.00
33155;BME280;19511;42.682;23.332;2023-04-09T08:24:51;95447.19;;;9.47;100.00
33155;BME280;19511;42.682;23.332;2023-04-09T08:27:16;95447.56;;;9.50;100.00
33155;BME280;19511;42.682;23.332;2023-04-09T08:29:42;95438.88;;;9.69;100.00
33155;BME280;19511;42.682;23.332;2023-04-09T08:32:11;95437.31;;;9.57;100.00
33155;BME280;19511;42.682;23.332;2023-04-09T08:34:36;95435.34;;;9.54;100.00
33155;BME280;19511;42.682;23.332;2023-04-09T08:37:02;95442.84;;;9.57;100.00
33155;BME280;19511;42.682;23.332;2023-04-09T08:39:27;95448.00;;;9.37;100.00
33155;BME280;19511;42.682;23.332;2023-04-09T08:41:54;95448.00;;;9.37;100.00
33155;BME280;19511;42.682;23.332;2023-04-09T08:44:24;95449.53;;;9.38;100.00
33155;BME280;19511;42.682;23.332;2023-04-09T08:46:53;95444.03;;;9.27;100.00
33155;BME280;19511;42.682;23.332;2023-04-09T08:49:18;95442.84;;;9.46;100.00
33155;BME280;19511;42.682;23.332;2023-04-09T08:51:44;95446.38;;;9.65;100.00
33155;BME280;19511;42.682;23.332;2023-04-09T08:54:13;95441.63;;;9.58;100.00
33155;BME280;19511;42.682;23.332;2023-04-09T08:56:38;95437.69;;;9.56;100.00
33155;BME280;19511;42.682;23.332;2023-04-09T08:59:03;95434.16;;;9.48;100.00
33155;BME280;19511;42.682;23.332;2023-04-09T09:01:29;95440.06;;;9.39;100.00
33155;BME280;19511;42.682;23.332;2023-04-09T09:06:21;95431.34;;;9.84;100.00
33155;BME280;19511;42.682;23.332;2023-04-09T09:08:58;95428.97;;;9.90;100.00
33155;BME280;19511;42.682;23.332;2023-04-09T09:11:24;95433.72;;;9.71;100.00
33155;BME280;19511;42.682;23.332;2023-04-09T09:13:55;95426.25;;;9.75;100.00
33155;BME280;19511;42.682;23.332;2023-04-09T09:16:21;95433.72;;;9.71;100.00
33155;BME280;19511;42.682;23.332;2023-04-09T09:18:46;95423.88;;;9.56;100.00
33155;BME280;19511;42.682;23.332;2023-04-09T09:21:13;95431.41;;;9.30;100.00
33155;BME280;19511;42.682;23.332;2023-04-09T09:23:38;95422.34;;;9.19;100.00
33155;BME280;19511;42.682;23.332;2023-04-09T09:26:13;95430.63;;;9.40;100.00
33155;BME280;19511;42.682;23.332;2023-04-09T09:28:43;95418.34;;;9.67;100.00
33155;BME280;19511;42.682;23.332;2023-04-09T09:31:09;95419.13;;;9.74;100.00
33155;BME280;19511;42.682;23.332;2023-04-09T09:33:35;95419.47;;;9.94;100.00
33155;BME280;19511;42.682;23.332;2023-04-09T09:36:03;95409.97;;;9.99;100.00
33155;BME280;19511;42.682;23.332;2023-04-09T09:38:53;95408.34;;;10.20;100.00
33155;BME280;19511;42.682;23.332;2023-04-09T09:41:19;95399.44;;;10.61;100.00
33155;BME280;19511;42.682;23.332;2023-04-09T09:43:45;95403.69;;;10.76;100.00
33155;BME280;19511;42.682;23.332;2023-04-09T09:46:14;95397.38;;;10.80;100.00
33155;BME280;19511;42.682;23.332;2023-04-09T09:48:42;95402.75;;;11.01;100.00
33155;BME280;19511;42.682;23.332;2023-04-09T09:51:11;95401.06;;;11.15;100.00
33155;BME280;19511;42.682;23.332;2023-04-09T09:53:42;95395.19;;;11.05;100.00
33155;BME280;19511;42.682;23.332;2023-04-09T09:56:13;95396.13;;;10.88;100.00
33155;BME280;19511;42.682;23.332;2023-04-09T09:58:40;95385.94;;;10.74;100.00
33155;BME280;19511;42.682;23.332;2023-04-09T10:01:09;95389.09;;;10.72;100.00
33155;BME280;19511;42.682;23.332;2023-04-09T10:03:36;95382.81;;;10.68;100.00
33155;BME280;19511;42.682;23.332;2023-04-09T10:06:04;95386.56;;;10.96;100.00
33155;BME280;19511;42.682;23.332;2023-04-09T10:08:33;95386.63;;;10.89;100.00
33155;BME280;19511;42.682;23.332;2023-04-09T10:11:00;95385.22;;;10.62;100.00
33155;BME280;19511;42.682;23.332;2023-04-09T10:13:32;95383.56;;;10.72;100.00
33155;BME280;19511;42.682;23.332;2023-04-09T10:15:59;95371.47;;;11.04;100.00
33155;BME280;19511;42.682;23.332;2023-04-09T10:18:25;95366.19;;;11.21;100.00
33155;BME280;19511;42.682;23.332;2023-04-09T10:20:58;95372.94;;;11.20;100.00
33155;BME280;19511;42.682;23.332;2023-04-09T10:25:57;95361.28;;;11.39;100.00
33155;BME280;19511;42.682;23.332;2023-04-09T10:28:22;95369.03;;;11.14;100.00
33155;BME280;19511;42.682;23.332;2023-04-09T10:30:48;95360.50;;;11.39;100.00
33155;BME280;19511;42.682;23.332;2023-04-09T10:33:18;95359.94;;;11.55;100.00
33155;BME280;19511;42.682;23.332;2023-04-09T10:35:46;95359.38;;;11.74;100.00
33155;BME280;19511;42.682;23.332;2023-04-09T10:38:15;95356.31;;;12.00;100.00
33155;BME280;19511;42.682;23.332;2023-04-09T10:40:47;95358.69;;;12.01;100.00
33155;BME280;19511;42.682;23.332;2023-04-09T10:43:18;95350.81;;;11.96;100.00
33155;BME280;19511;42.682;23.332;2023-04-09T10:45:47;95345.81;;;12.15;100.00
33155;BME280;19511;42.682;23.332;2023-04-09T10:48:17;95341.66;;;12.30;100.00
33155;BME280;19511;42.682;23.332;2023-04-09T10:50:48;95339.09;;;12.16;100.00
33155;BME280;19511;42.682;23.332;2023-04-09T10:53:21;95340.03;;;12.33;100.00
33155;BME280;19511;42.682;23.332;2023-04-09T10:55:48;95338.06;;;12.33;100.00
33155;BME280;19511;42.682;23.332;2023-04-09T10:58:15;95324.47;;;12.43;100.00
33155;BME280;19511;42.682;23.332;2023-04-09T11:00:44;95331.91;;;12.18;100.00
33155;BME280;19511;42.682;23.332;2023-04-09T11:03:19;95329.22;;;12.11;100.00
33155;BME280;19511;42.682;23.332;2023-04-09T11:08:17;95324.69;;;11.93;100.00
33155;BME280;19511;42.682;23.332;2023-04-09T11:10:43;95322.53;;;12.08;100.00
33155;BME280;19511;42.682;23.332;2023-04-09T11:13:12;95313.75;;;12.14;100.00
33155;BME280;19511;42.682;23.332;2023-04-09T11:15:41;95310.81;;;12.28;100.00
33155;BME280;19511;42.682;23.332;2023-04-09T11:18:19;95318.22;;;12.07;100.00
33155;BME280;19511;42.682;23.332;2023-04-09T11:20:44;95321.25;;;12.17;100.00
33155;BME280;19511;42.682;23.332;2023-04-09T11:23:10;95316.13;;;12.15;100.00
33155;BME280;19511;42.682;23.332;2023-04-09T11:25:36;95317.53;;;12.27;100.00
33155;BME280;19511;42.682;23.332;2023-04-09T11:28:01;95308.59;;;12.16;100.00
33155;BME280;19511;42.682;23.332;2023-04-09T11:30:27;95311.34;;;12.16;100.00
33155;BME280;19511;42.682;23.332;2023-04-09T11:32:53;95312.50;;;12.18;100.00
33155;BME280;19511;42.682;23.332;2023-04-09T11:35:19;95308.06;;;12.24;100.00
33155;BME280;19511;42.682;23.332;2023-04-09T11:37:45;95300.72;;;12.11;100.00
33155;BME280;19511;42.682;23.332;2023-04-09T11:40:16;95303.59;;;12.34;100.00
33155;BME280;19511;42.682;23.332;2023-04-09T11:42:42;95293.47;;;12.20;100.00
33155;BME280;19511;42.682;23.332;2023-04-09T11:45:16;95296.09;;;12.31;100.00
33155;BME280;19511;42.682;23.332;2023-04-09T11:47:42;95286.28;;;12.50;100.00
33155;BME280;19511;42.682;23.332;2023-04-09T11:50:08;95286.50;;;12.63;100.00
33155;BME280;19511;42.682;23.332;2023-04-09T11:52:34;95291.41;;;12.79;100.00
33155;BME280;19511;42.682;23.332;2023-04-09T11:55:03;95291.38;;;12.55;100.00
33155;BME280;19511;42.682;23.332;2023-04-09T11:57:38;95285.44;;;12.81;100.00
33155;BME280;19511;42.682;23.332;2023-04-09T12:02:37;95284.00;;;12.72;100.00
33155;BME280;19511;42.682;23.332;2023-04-09T12:05:02;95285.44;;;12.81;100.00
33155;BME280;19511;42.682;23.332;2023-04-09T12:07:35;95280.47;;;12.92;100.00
33155;BME280;19511;42.682;23.332;2023-04-09T12:10:11;95279.88;;;12.81;100.00
33155;BME280;19511;42.682;23.332;2023-04-09T12:12:40;95277.41;;;12.86;100.00
33155;BME280;19511;42.682;23.332;2023-04-09T12:15:06;95276.66;;;12.82;100.00
33155;BME280;19511;42.682;23.332;2023-04-09T12:17:34;95275.84;;;12.85;99.79
33155;BME280;19511;42.682;23.332;2023-04-09T12:19:59;95276.97;;;12.64;100.00
33155;BME280;19511;42.682;23.332;2023-04-09T12:22:24;95272.84;;;12.76;100.00
33155;BME280;19511;42.682;23.332;2023-04-09T12:24:50;95275.84;;;12.85;100.00
33155;BME280;19511;42.682;23.332;2023-04-09T12:27:15;95275.91;;;12.82;100.00
33155;BME280;19511;42.682;23.332;2023-04-09T12:29:40;95268.56;;;12.95;100.00
33155;BME280;19511;42.682;23.332;2023-04-09T12:32:06;95269.38;;;12.92;100.00
33155;BME280;19511;42.682;23.332;2023-04-09T12:34:32;95259.97;;;13.10;100.00
33155;BME280;19511;42.682;23.332;2023-04-09T12:36:58;95246.78;;;13.14;100.00
33155;BME280;19511;42.682;23.332;2023-04-09T12:39:23;95256.13;;;13.23;100.00
33155;BME280;19511;42.682;23.332;2023-04-09T12:41:48;95247.03;;;13.23;100.00
33155;BME280;19511;42.682;23.332;2023-04-09T12:44:13;95247.50;;;13.18;99.22
33155;BME280;19511;42.682;23.332;2023-04-09T12:46:39;95251.56;;;13.37;99.18
33155;BME280;19511;42.682;23.332;2023-04-09T12:49:04;95256.28;;;13.36;99.97
33155;BME280;19511;42.682;23.332;2023-04-09T12:51:30;95253.53;;;13.13;100.00
33155;BME280;19511;42.682;23.332;2023-04-09T12:53:55;95255.16;;;13.34;98.99
33155;BME280;19511;42.682;23.332;2023-04-09T12:56:20;95248.28;;;13.18;94.42
33155;BME280;19511;42.682;23.332;2023-04-09T12:58:46;95247.69;;;13.31;91.04
33155;BME280;19511;42.682;23.332;2023-04-09T13:01:11;95242.81;;;13.15;94.98
33155;BME280;19511;42.682;23.332;2023-04-09T13:03:36;95236.06;;;12.92;94.94
33155;BME280;19511;42.682;23.332;2023-04-09T13:06:03;95244.22;;;12.79;98.49